This is the latest recevied weather packets stored in our database for station/object F4AMY-13. If no packets are shown the sender has not sent any weather packets the latest 10 day(s).
| Time | Temp. | Humidity | Pressure | Rain* | Wind** | Luminosity | Snow |
|---|---|---|---|---|---|---|---|
| 1777726358 | 25.56° C | 34% | 1021 hPa | 0 mm | 196.7 m/s, ° | 440 W/m² | - |
| 1777726058 | 25.56° C | 37% | 1020.8 hPa | 0 mm | 198.04 m/s, ° | 443 W/m² | - |
| 1777725758 | 25.56° C | 34% | 1021 hPa | 0 mm | 206.98 m/s, ° | 463 W/m² | - |
| 1777725458 | 25.56° C | 35% | 1021 hPa | 0 mm | 209.21 m/s, ° | 468 W/m² | - |
| 1777725158 | 25.56° C | 35% | 1021.1 hPa | 0 mm | 212.79 m/s, ° | 476 W/m² | - |
| 1777724858 | 25.56° C | 33% | 1020.9 hPa | 0 mm | 210.56 m/s, ° | 471 W/m² | - |
| 1777724558 | 25.56° C | 33% | 1021.1 hPa | 0 mm | 209.66 m/s, ° | 469 W/m² | - |
| 1777724258 | 25.56° C | 36% | 1020.9 hPa | 0 mm | 204.3 m/s, ° | 457 W/m² | - |
| 1777723958 | 25.56° C | 30% | 1021.1 hPa | 0 mm | 200.27 m/s, ° | 448 W/m² | - |
| 1777723658 | 25.56° C | 32% | 1021 hPa | 0 mm | 193.12 m/s, ° | 432 W/m² | - |
| 1777723357 | 25° C | 32% | 1020.9 hPa | 0 mm | 204.74 m/s, ° | 458 W/m² | - |
| 1777723057 | 25° C | 33% | 1021.2 hPa | 0 mm | 212.34 m/s, ° | 475 W/m² | - |
| 1777722757 | 25° C | 33% | 1021.1 hPa | 0 mm | 208.77 m/s, ° | 467 W/m² | - |
| 1777722457 | 25° C | 33% | 1021.2 hPa | 0 mm | 202.96 m/s, ° | 454 W/m² | - |
| 1777722157 | 25° C | 34% | 1021.2 hPa | 0 mm | 213.24 m/s, ° | 477 W/m² | - |
| 1777721857 | 24.44° C | 36% | 1021.2 hPa | 0 mm | 199.83 m/s, ° | 447 W/m² | - |
| 1777721557 | 24.44° C | 35% | 1021.4 hPa | 0 mm | 205.19 m/s, ° | 459 W/m² | - |
| 1777721257 | 24.44° C | 35% | 1021.2 hPa | 0 mm | 135.9 m/s, ° | 304 W/m² | - |
| 1777720957 | 23.89° C | 35% | 1021.5 hPa | 0 mm | 202.51 m/s, ° | 453 W/m² | - |
| 1777720657 | 23.89° C | 32% | 1021.8 hPa | 0 mm | 189.99 m/s, ° | 425 W/m² | - |
| 1777720357 | 23.89° C | 31% | 1021.6 hPa | 0 mm | 188.2 m/s, ° | 421 W/m² | - |
| 1777720057 | 23.33° C | 34% | 1021.7 hPa | 0 mm | 189.99 m/s, ° | 425 W/m² | - |
| 1777719757 | 23.33° C | 34% | 1022 hPa | 0 mm | 122.04 m/s, ° | 273 W/m² | - |
| 1777719457 | 23.33° C | 36% | 1021.8 hPa | 0 mm | 44.7 m/s, ° | 100 W/m² | - |
| 1777719157 | 23.33° C | 33% | 1021.9 hPa | 0 mm | 119.81 m/s, ° | 268 W/m² | - |
* Rain latest hour (hover to see other rain measurements)
** Current wind speed in m/s (hover to see current wind gust speed)